Time;durP1;ratioP1;P1;durP2;ratioP2;P2;SDS_P1;SDS_P2;PMS_P1;PMS_P2;Temp;Humidity;BMP_temperature;BMP_pressure;BME280_temperature;BME280_humidity;BME280_pressure;Samples;Min_cycle;Max_cycle;Signal;HPM_P1;HPM_P2
2022/12/15 00:40:59;;;;;;;22.27;12.75;;;;;;;2.20;47.89;100627.09;5103773;28;20054;-61
2022/12/15 00:43:28;;;;;;;23.77;12.95;;;;;;;2.11;47.84;100610.41;5104492;28;20115;-61
2022/12/15 00:48:42;;;;;;;23.58;13.40;;;;;;;2.08;47.75;100615.22;5103706;28;20142;-60
2022/12/15 00:51:10;;;;;;;20.33;12.23;;;;;;;2.14;47.75;100633.91;5110180;28;20047;-61
2022/12/15 01:21:20;;;;;;;27.02;12.88;;;;;;;2.03;47.65;100636.13;5102790;28;20070;-61
2022/12/15 01:23:51;;;;;;;25.13;12.73;;;;;;;2.00;47.81;100634.63;5097886;28;20246;-62
2022/12/15 01:26:19;;;;;;;21.58;12.43;;;;;;;2.01;47.99;100638.09;5104903;28;20044;-61
2022/12/15 01:28:48;;;;;;;22.25;12.50;;;;;;;1.99;47.69;100632.97;5097038;28;20078;-62
2022/12/15 01:31:16;;;;;;;24.58;12.77;;;;;;;1.99;47.90;100634.81;5105796;28;20055;-62
2022/12/15 01:33:43;;;;;;;23.48;12.60;;;;;;;1.99;48.06;100634.81;5104723;28;20047;-60
2022/12/15 01:36:11;;;;;;;25.33;12.52;;;;;;;1.98;47.66;100635.78;5103309;28;20048;-61
2022/12/15 01:38:39;;;;;;;23.00;12.43;;;;;;;1.91;47.65;100635.66;5103088;28;20119;-61
2022/12/15 01:41:08;;;;;;;21.13;11.00;;;;;;;1.95;47.95;100643.09;5102667;28;20041;-61
2022/12/15 01:43:39;;;;;;;23.80;12.13;;;;;;;1.92;48.17;100638.13;5106454;28;20054;-61
2022/12/15 01:46:10;;;;;;;27.42;13.20;;;;;;;1.91;48.18;100639.13;5107666;28;20524;-61
2022/12/15 01:48:44;;;;;;;23.23;12.73;;;;;;;1.92;48.04;100650.56;5102825;28;20120;-61
2022/12/15 01:51:19;;;;;;;26.45;13.95;;;;;;;1.91;47.81;100651.56;5107959;28;20063;-61
2022/12/15 01:53:53;;;;;;;25.33;13.30;;;;;;;1.91;47.78;100655.03;5102314;28;20702;-62
2022/12/15 01:56:23;;;;;;;20.42;12.90;;;;;;;1.90;47.90;100660.50;5097654;28;20048;-60
2022/12/15 01:58:54;;;;;;;25.70;13.55;;;;;;;1.88;47.74;100652.72;5111285;28;20052;-60
2022/12/15 02:01:23;;;;;;;24.90;13.55;;;;;;;1.85;47.88;100658.38;5104558;28;20108;-61
2022/12/15 02:03:51;;;;;;;22.90;12.77;;;;;;;1.84;47.95;100663.81;5105732;28;20067;-62
2022/12/15 02:06:21;;;;;;;26.52;14.00;;;;;;;1.78;47.91;100646.78;5100481;28;20054;-61
2022/12/15 02:08:53;;;;;;;23.83;13.07;;;;;;;1.83;47.95;100665.66;5104325;28;20054;-60
2022/12/15 02:11:44;;;;;;;21.60;12.57;;;;;;;1.78;47.97;100660.03;5114504;28;20048;-60
2022/12/15 02:14:18;;;;;;;24.48;13.57;;;;;;;1.82;48.01;100671.94;5104031;28;20050;-60
2022/12/15 02:17:07;;;;;;;21.20;13.13;;;;;;;1.81;48.19;100672.94;5109477;28;20484;-61
2022/12/15 02:20:02;;;;;;;22.23;13.05;;;;;;;1.80;48.07;100673.13;5097424;28;20051;-61
2022/12/15 02:22:48;;;;;;;26.42;13.32;;;;;;;1.80;48.05;100679.25;5115381;28;20488;-62
2022/12/15 02:25:42;;;;;;;19.45;12.18;;;;;;;1.77;47.92;100687.53;5101024;28;20131;-62
2022/12/15 02:28:13;;;;;;;26.77;13.35;;;;;;;1.77;48.07;100687.53;5098996;28;20115;-62
2022/12/15 02:31:48;;;;;;;24.83;13.40;;;;;;;1.75;48.14;100692.16;5090346;28;20048;-62
2022/12/15 02:33:46;;;;;;;24.88;12.70;;;;;;;1.75;47.95;100691.34;5106421;28;20094;-62
2022/12/15 02:36:21;;;;;;;42.00;14.63;;;;;;;1.75;48.24;100694.00;5105657;28;20465;-62
2022/12/15 02:38:49;;;;;;;23.50;13.35;;;;;;;1.74;48.15;100698.47;5112213;28;20538;-61
2022/12/15 02:41:34;;;;;;;20.90;12.85;;;;;;;1.72;48.19;100695.19;5109231;28;20044;-61
2022/12/15 02:44:08;;;;;;;24.50;13.25;;;;;;;1.74;48.09;100697.63;5110161;28;20048;-62
2022/12/15 02:46:48;;;;;;;26.33;13.35;;;;;;;1.72;48.05;100699.66;5103635;28;20052;-62
2022/12/15 02:49:26;;;;;;;25.17;12.43;;;;;;;1.71;48.19;100698.00;5102488;28;20052;-61
2022/12/15 02:52:05;;;;;;;21.80;12.60;;;;;;;1.69;48.21;100698.16;5096340;28;20078;-61
2022/12/15 02:54:47;;;;;;;23.73;12.73;;;;;;;1.70;48.13;100696.34;5105651;28;20412;-62
2022/12/15 02:57:20;;;;;;;24.20;14.27;;;;;;;1.68;48.12;100693.88;5112201;28;20054;-61
2022/12/15 02:59:54;;;;;;;22.73;13.38;;;;;;;1.67;48.07;100691.38;5096075;28;20103;-61
2022/12/15 03:02:26;;;;;;;22.60;13.30;;;;;;;1.65;48.41;100688.91;5106702;28;20058;-61
2022/12/15 03:04:55;;;;;;;26.23;13.80;;;;;;;1.64;48.60;100695.19;5114758;28;20048;-62
2022/12/15 03:07:26;;;;;;;26.40;14.48;;;;;;;1.62;48.34;100692.72;5109168;28;20119;-62
2022/12/15 03:09:55;;;;;;;23.30;13.13;;;;;;;1.62;48.29;100699.84;5101568;28;20050;-62
2022/12/15 03:12:23;;;;;;;22.50;13.68;;;;;;;1.62;48.38;100703.31;5109710;28;20144;-62
2022/12/15 03:14:51;;;;;;;21.10;12.38;;;;;;;1.58;47.99;100703.81;5094917;28;20111;-61
2022/12/15 03:17:19;;;;;;;21.67;13.02;;;;;;;1.60;48.27;100712.41;5104891;28;20040;-61
2022/12/15 03:19:48;;;;;;;26.35;14.35;;;;;;;1.45;48.26;100690.25;5101265;28;20071;-60
2022/12/15 03:22:16;;;;;;;25.88;13.43;;;;;;;1.60;48.19;100717.72;5115197;28;20423;-61
2022/12/15 03:24:44;;;;;;;26.77;13.23;;;;;;;1.58;48.36;100722.34;5107811;28;20048;-61
2022/12/15 03:27:12;;;;;;;24.80;13.95;;;;;;;1.56;48.36;100721.69;5101163;28;20052;-61
2022/12/15 03:29:39;;;;;;;29.17;14.05;;;;;;;1.56;48.32;100719.88;5099790;28;20044;-61
2022/12/15 03:32:07;;;;;;;23.65;14.13;;;;;;;1.55;48.35;100718.22;5100025;28;20055;-61
2022/12/15 03:34:35;;;;;;;25.65;13.75;;;;;;;1.55;48.32;100717.38;5100703;28;20048;-61
2022/12/15 03:37:04;;;;;;;25.23;13.52;;;;;;;1.54;48.38;100713.06;5108799;28;20048;-61
2022/12/15 03:39:32;;;;;;;25.25;13.65;;;;;;;1.52;48.46;100721.19;5105652;28;20527;-61
2022/12/15 03:41:59;;;;;;;24.15;13.48;;;;;;;1.50;48.59;100717.06;5107559;28;20135;-61
2022/12/15 03:44:27;;;;;;;26.73;14.23;;;;;;;1.51;48.61;100716.88;5105673;28;20052;-61
2022/12/15 03:46:55;;;;;;;32.17;15.60;;;;;;;1.49;48.74;100715.41;5099187;28;20052;-61
2022/12/15 03:49:29;;;;;;;22.35;12.30;;;;;;;1.49;48.60;100718.88;5105955;28;20052;-61
2022/12/15 03:51:57;;;;;;;28.02;14.15;;;;;;;1.48;48.57;100711.09;5110945;28;20078;-61
2022/12/15 03:54:26;;;;;;;27.70;13.35;;;;;;;1.47;48.58;100709.44;5107655;28;20082;-61
2022/12/15 03:56:54;;;;;;;26.50;14.85;;;;;;;1.46;48.18;100718.38;5097298;28;20132;-61
2022/12/15 03:59:21;;;;;;;26.13;14.73;;;;;;;1.45;48.59;100709.59;5101394;28;20092;-61
2022/12/15 04:01:49;;;;;;;24.90;14.05;;;;;;;1.46;48.59;100715.72;5107846;28;20051;-61
2022/12/15 04:04:17;;;;;;;30.67;15.10;;;;;;;1.45;48.63;100711.44;5105070;28;20059;-61
2022/12/15 04:06:45;;;;;;;20.80;13.63;;;;;;;1.43;48.48;100714.25;5108510;28;20047;-61
2022/12/15 04:09:12;;;;;;;24.42;13.18;;;;;;;1.43;48.60;100716.06;5109838;28;20048;-61
2022/12/15 04:11:41;;;;;;;27.05;14.80;;;;;;;1.42;48.66;100711.75;5110031;28;20047;-60
2022/12/15 04:14:09;;;;;;;26.77;14.80;;;;;;;1.37;48.67;100706.97;5103323;28;20044;-60
2022/12/15 04:16:37;;;;;;;24.92;13.73;;;;;;;1.38;48.27;100705.97;5104367;28;20055;-61
2022/12/15 04:21:56;;;;;;;25.20;15.38;;;;;;;1.39;48.48;100710.28;5004290;28;20113;-62
2022/12/15 05:33:30;;;;;;;23.65;13.95;;;;;;;1.19;49.05;100762.69;5103712;28;20048;-62
2022/12/15 05:35:58;;;;;;;23.83;13.68;;;;;;;1.18;48.94;100766.34;5118114;28;20054;-61
2022/12/15 05:38:26;;;;;;;22.23;13.20;;;;;;;1.17;48.99;100769.16;5100264;28;20051;-61
2022/12/15 05:40:58;;;;;;;24.85;13.88;;;;;;;1.15;48.94;100764.03;5109703;28;20040;-61
2022/12/15 05:43:26;;;;;;;25.95;13.68;;;;;;;1.13;49.38;100773.94;5111501;28;20119;-61
2022/12/15 05:45:53;;;;;;;24.48;13.98;;;;;;;1.15;48.93;100771.13;5112862;28;20044;-61
2022/12/15 05:48:21;;;;;;;24.60;14.63;;;;;;;1.12;48.63;100780.22;5100757;28;20056;-61
2022/12/15 05:50:50;;;;;;;25.60;13.27;;;;;;;1.13;49.10;100778.41;5111216;28;20155;-61
2022/12/15 05:53:18;;;;;;;26.02;14.23;;;;;;;1.12;49.05;100776.75;5106925;28;20058;-61
2022/12/15 05:55:46;;;;;;;25.80;15.18;;;;;;;1.01;49.17;100756.72;5104690;28;20051;-61
2022/12/15 05:58:13;;;;;;;24.20;13.63;;;;;;;1.11;49.34;100770.63;5105750;28;20058;-63
2022/12/15 06:00:41;;;;;;;24.40;14.27;;;;;;;1.10;49.21;100778.72;5096720;28;20055;-63
2022/12/15 06:03:09;;;;;;;26.50;13.90;;;;;;;1.09;49.17;100772.59;5110594;28;20506;-62
2022/12/15 06:05:37;;;;;;;24.45;14.18;;;;;;;1.07;49.26;100774.59;5109766;28;20131;-61
2022/12/15 06:08:06;;;;;;;23.48;14.32;;;;;;;1.07;49.05;100771.13;5099710;28;20063;-62
2022/12/15 06:10:34;;;;;;;30.67;15.18;;;;;;;1.11;49.11;100772.44;5105433;28;20062;-62
2022/12/15 06:13:01;;;;;;;28.58;15.77;;;;;;;1.21;48.72;100775.78;5106878;28;20044;-62
2022/12/15 06:15:29;;;;;;;24.25;13.35;;;;;;;1.32;48.43;100764.88;5100893;28;20047;-62
2022/12/15 06:17:57;;;;;;;24.35;13.75;;;;;;;1.46;48.18;100763.41;5096115;28;20186;-61
2022/12/15 06:20:24;;;;;;;27.75;15.60;;;;;;;1.60;47.72;100768.03;5098653;28;20070;-64
2022/12/15 06:22:52;;;;;;;27.27;14.68;;;;;;;1.76;47.49;100773.28;5103883;28;20249;-61
2022/12/15 06:25:21;;;;;;;26.98;14.63;;;;;;;1.91;46.74;100784.88;5107058;28;20064;-62
2022/12/15 06:27:49;;;;;;;24.25;13.07;;;;;;;2.03;46.82;100788.00;5106230;28;20040;-61
2022/12/15 06:30:17;;;;;;;25.98;13.50;;;;;;;2.13;46.46;100793.13;5100053;28;20067;-61
2022/12/15 06:32:45;;;;;;;26.85;13.13;;;;;;;2.25;46.19;100784.66;5120851;28;20071;-61
2022/12/15 06:35:16;;;;;;;23.33;13.63;;;;;;;2.37;45.93;100786.94;5117047;28;20061;-60
2022/12/15 06:37:44;;;;;;;25.13;14.48;;;;;;;2.47;45.94;100790.25;5099528;28;20504;-62
2022/12/15 06:40:12;;;;;;;24.35;14.20;;;;;;;2.61;45.76;100786.88;5105857;28;20564;-62
2022/12/15 06:42:41;;;;;;;27.75;15.10;;;;;;;2.70;45.37;100796.47;5115407;28;20048;-62
2022/12/15 06:45:09;;;;;;;29.50;14.15;;;;;;;2.77;45.33;100793.94;5108136;28;20071;-63
2022/12/15 06:47:45;;;;;;;24.16;12.97;;;;;;;2.78;44.63;100791.13;4670414;28;10001230;-62
2022/12/15 06:50:12;;;;;;;26.70;15.40;;;;;;;2.81;45.18;100788.13;5095680;28;20971;-63
2022/12/15 06:52:40;;;;;;;22.33;13.02;;;;;;;2.85;45.06;100793.91;5100919;28;20444;-62
2022/12/15 06:55:08;;;;;;;28.13;15.38;;;;;;;2.85;45.07;100791.25;5099740;28;20190;-62
2022/12/15 06:57:37;;;;;;;25.42;13.73;;;;;;;2.90;44.91;100794.22;5096742;28;20117;-62
2022/12/15 07:00:08;;;;;;;27.02;13.13;;;;;;;2.82;44.78;100794.25;5099992;28;20116;-60
2022/12/15 07:02:36;;;;;;;23.15;13.32;;;;;;;2.68;45.28;100794.97;5108837;28;20060;-62
2022/12/15 07:05:04;;;;;;;25.30;15.32;;;;;;;2.46;45.39;100807.16;5103728;28;20052;-69
2022/12/15 07:07:32;;;;;;;24.73;15.18;;;;;;;2.26;45.90;100807.53;5099889;28;20048;-61
2022/12/15 07:10:00;;;;;;;29.83;15.07;;;;;;;2.09;46.41;100815.66;5111117;27;20107;-63
2022/12/15 07:12:28;;;;;;;26.08;14.10;;;;;;;1.98;46.88;100810.72;5086049;28;20049;-69
2022/12/15 07:14:55;;;;;;;28.52;15.38;;;;;;;1.75;47.43;100811.38;5096181;28;20059;-64
2022/12/15 07:17:24;;;;;;;27.00;14.95;;;;;;;1.69;47.78;100811.25;5103803;28;20148;-64
2022/12/15 07:19:52;;;;;;;29.60;15.15;;;;;;;1.64;48.09;100811.75;5104299;28;20048;-64
2022/12/15 07:22:20;;;;;;;26.33;15.30;;;;;;;1.60;47.92;100807.75;5113947;28;20138;-67
2022/12/15 07:24:48;;;;;;;31.33;15.55;;;;;;;1.55;48.07;100810.91;5112040;28;20505;-65
2022/12/15 07:27:16;;;;;;;30.35;15.80;;;;;;;1.50;48.25;100804.44;5108551;28;20076;-65
2022/12/15 07:29:44;;;;;;;28.60;15.20;;;;;;;1.47;48.36;100810.06;5111579;28;20123;-65
2022/12/15 07:32:12;;;;;;;33.13;16.15;;;;;;;1.43;48.00;100819.31;5105331;28;20051;-65
2022/12/15 07:34:41;;;;;;;28.05;15.75;;;;;;;1.40;48.60;100814.34;5104165;28;20050;-65
2022/12/15 07:37:09;;;;;;;43.42;16.73;;;;;;;1.37;48.46;100815.50;5106237;28;20120;-65
2022/12/15 07:39:37;;;;;;;27.52;16.35;;;;;;;1.32;49.02;100812.53;5105711;28;20131;-65
2022/12/15 07:42:05;;;;;;;29.02;16.25;;;;;;;1.30;48.86;100817.97;5103052;28;20072;-66
2022/12/15 07:44:32;;;;;;;26.23;15.18;;;;;;;1.27;48.98;100823.59;5105554;28;20044;-65
2022/12/15 07:47:00;;;;;;;28.02;15.95;;;;;;;1.25;49.00;100830.06;5109536;28;20083;-65
2022/12/15 07:49:28;;;;;;;29.13;16.92;;;;;;;1.23;49.45;100835.50;5106474;28;20413;-65
2022/12/15 07:51:57;;;;;;;27.75;15.38;;;;;;;1.22;48.97;100835.66;5106813;28;20075;-65
2022/12/15 07:54:25;;;;;;;28.75;16.10;;;;;;;1.19;49.38;100836.81;5101068;28;20063;-65
2022/12/15 07:56:52;;;;;;;26.25;14.65;;;;;;;1.18;49.21;100843.09;5105347;28;20306;-65
2022/12/15 07:59:20;;;;;;;27.60;16.70;;;;;;;1.18;49.25;100839.63;5095806;28;20050;-65
2022/12/15 08:01:48;;;;;;;28.92;16.23;;;;;;;1.19;49.16;100841.28;5106360;28;20111;-65
2022/12/15 08:04:16;;;;;;;28.02;17.10;;;;;;;1.15;49.46;100840.78;5098483;28;20134;-64
2022/12/15 08:06:45;;;;;;;31.40;17.20;;;;;;;1.15;49.48;100839.94;4746691;27;10000040;-65
2022/12/15 08:09:14;;;;;;;30.17;16.10;;;;;;;1.24;48.95;100846.91;5101187;28;20063;-64
2022/12/15 08:11:41;;;;;;;32.85;15.68;;;;;;;1.36;48.90;100845.63;5109015;28;20067;-65
2022/12/15 08:14:09;;;;;;;26.98;15.35;;;;;;;1.54;48.61;100845.50;5116717;28;20169;-64
2022/12/15 08:16:44;;;;;;;30.50;15.70;;;;;;;1.70;48.02;100853.47;5100600;28;20073;-64
2022/12/15 08:19:14;;;;;;;30.35;16.65;;;;;;;1.86;47.72;100842.03;5098060;28;20040;-64
2022/12/15 08:21:45;;;;;;;31.92;16.83;;;;;;;2.01;47.08;100832.41;5110850;28;20067;-64
2022/12/15 08:24:15;;;;;;;31.77;16.30;;;;;;;2.11;46.92;100833.06;5107889;28;20052;-64
2022/12/15 08:26:44;;;;;;;27.27;14.50;;;;;;;2.28;46.55;100840.00;5093311;28;20056;-64
2022/12/15 08:29:17;;;;;;;27.65;15.25;;;;;;;2.43;45.97;100834.84;5105057;28;20062;-65
2022/12/15 08:32:06;;;;;;;25.27;15.63;;;;;;;2.54;46.05;100839.78;5110499;28;20396;-64
2022/12/15 08:34:34;;;;;;;26.98;15.10;;;;;;;2.58;45.71;100827.84;5104449;28;20069;-66
2022/12/15 08:37:02;;;;;;;29.83;15.48;;;;;;;2.72;45.30;100828.97;5104171;28;20047;-64
2022/12/15 08:43:26;;;;;;;25.55;14.88;;;;;;;2.87;45.30;100845.81;5053143;28;20089;-69
2022/12/15 08:45:57;;;;;;;27.88;15.90;;;;;;;2.89;45.04;100845.66;5027267;28;20057;-68
2022/12/15 08:48:24;;;;;;;30.00;15.73;;;;;;;2.93;45.25;100860.22;5041469;28;20053;-68
2022/12/15 08:50:55;;;;;;;30.95;16.50;;;;;;;2.92;45.05;100854.09;5039101;28;20121;-69
2022/12/15 08:53:22;;;;;;;24.05;14.95;;;;;;;2.94;45.35;100852.09;5042370;28;20053;-68
2022/12/15 08:56:02;;;;;;;28.58;16.20;;;;;;;2.96;45.57;100853.75;5040781;28;20046;-69
2022/12/15 08:58:31;;;;;;;31.58;15.68;;;;;;;2.97;44.94;100858.88;5041257;28;20124;-67
2022/12/15 09:01:02;;;;;;;28.70;14.95;;;;;;;2.98;45.41;100859.72;5039494;28;20049;-69
2022/12/15 09:03:30;;;;;;;23.42;14.30;;;;;;;3.01;45.42;100867.34;5041857;28;20107;-68
2022/12/15 09:06:02;;;;;;;28.58;15.80;;;;;;;3.01;45.48;100873.47;5040294;28;20065;-69
2022/12/15 09:08:30;;;;;;;28.95;15.63;;;;;;;3.04;45.71;100881.09;5041483;28;20069;-68
2022/12/15 09:10:59;;;;;;;30.17;14.95;;;;;;;3.05;45.24;100888.06;5041624;28;20129;-69
2022/12/15 09:13:28;;;;;;;26.90;15.00;;;;;;;3.09;44.78;100896.50;5080687;28;20054;-69
2022/12/15 09:15:59;;;;;;;24.63;14.85;;;;;;;3.07;45.60;100899.34;5097273;28;20055;-69
2022/12/15 09:18:44;;;;;;;26.10;15.45;;;;;;;3.12;45.09;100904.13;5101337;28;20052;-69
2022/12/15 09:21:12;;;;;;;26.17;15.20;;;;;;;3.12;45.53;100904.13;5099214;28;20135;-70
2022/12/15 09:23:40;;;;;;;33.80;15.25;;;;;;;3.14;45.43;100902.97;5103459;28;20044;-69
2022/12/15 09:26:10;;;;;;;27.48;15.90;;;;;;;3.15;45.09;100904.63;5099184;28;20059;-69
2022/12/15 09:28:38;;;;;;;24.67;13.98;;;;;;;3.18;45.31;100904.28;5102489;28;20460;-69
2022/12/15 09:31:09;;;;;;;29.50;15.77;;;;;;;3.18;45.52;100888.34;5095259;28;20511;-69
2022/12/15 09:33:37;;;;;;;30.52;16.35;;;;;;;3.24;44.84;100897.44;5102422;28;20060;-69
2022/12/15 09:36:06;;;;;;;24.73;15.20;;;;;;;3.24;44.97;100908.91;5102994;28;20070;-69
2022/12/15 09:38:36;;;;;;;28.05;16.05;;;;;;;3.25;45.19;100910.53;5101596;28;20136;-69
2022/12/15 09:41:09;;;;;;;29.10;15.93;;;;;;;3.26;45.61;100911.38;5099330;28;20501;-69
2022/12/15 09:43:41;;;;;;;24.02;16.08;;;;;;;3.29;44.99;100916.34;5106671;28;20052;-69
2022/12/15 09:46:26;;;;;;;28.55;16.15;;;;;;;3.33;45.07;100917.66;5104391;28;20177;-67
2022/12/15 09:48:58;;;;;;;24.40;15.02;;;;;;;3.30;45.04;100922.47;5104417;28;20055;-72
2022/12/15 09:51:32;;;;;;;29.77;15.35;;;;;;;3.34;45.31;100921.97;5104381;28;20050;-72
2022/12/15 09:54:00;;;;;;;27.45;16.63;;;;;;;3.36;45.98;100922.63;5095531;28;20048;-71
2022/12/15 09:56:39;;;;;;;26.50;14.68;;;;;;;3.37;45.53;100924.28;5114471;28;20044;-71
2022/12/15 09:59:20;;;;;;;33.25;16.35;;;;;;;3.38;45.24;100922.44;5090041;28;20048;-71
2022/12/15 10:01:58;;;;;;;27.08;15.05;;;;;;;3.46;45.47;100931.22;5098755;28;20075;-71
2022/12/15 10:04:37;;;;;;;30.83;15.73;;;;;;;3.44;45.77;100927.06;5103573;28;20072;-70
2022/12/15 10:07:12;;;;;;;35.53;17.85;;;;;;;3.47;45.51;100930.16;5097938;28;20123;-71
2022/12/15 10:09:39;;;;;;;29.85;15.43;;;;;;;3.51;45.23;100930.66;5098660;28;20052;-70
2022/12/15 10:12:13;;;;;;;30.70;16.80;;;;;;;3.51;45.23;100926.16;5096047;28;20410;-70
2022/12/15 10:14:44;;;;;;;29.70;16.25;;;;;;;3.51;45.34;100920.84;5090121;28;20044;-70
2022/12/15 10:17:22;;;;;;;28.92;16.60;;;;;;;3.44;45.53;100905.81;5102068;28;20175;-71
2022/12/15 10:19:55;;;;;;;34.67;15.85;;;;;;;3.51;46.31;100922.69;5093716;28;20048;-70
2022/12/15 10:22:25;;;;;;;33.45;15.65;;;;;;;3.39;46.61;100924.09;5103846;28;20060;-71
2022/12/15 10:24:54;;;;;;;25.33;15.60;;;;;;;3.23;47.22;100917.03;5102549;28;20048;-68
2022/12/15 10:27:59;;;;;;;28.55;16.90;;;;;;;3.03;47.89;100921.91;5106078;28;20044;-72
2022/12/15 10:30:27;;;;;;;34.65;17.88;;;;;;;2.71;48.49;100916.69;5102137;28;20040;-66
2022/12/15 10:33:02;;;;;;;29.23;17.33;;;;;;;2.63;48.62;100925.50;5097217;28;20075;-66
2022/12/15 10:35:32;;;;;;;34.90;18.50;;;;;;;2.58;49.21;100935.78;5115394;28;20516;-66
2022/12/15 10:38:03;;;;;;;29.65;18.10;;;;;;;2.53;49.07;100940.75;5102386;28;20120;-66
2022/12/15 10:40:47;;;;;;;30.75;16.98;;;;;;;2.49;49.62;100940.25;5101140;28;20056;-66
2022/12/15 10:43:37;;;;;;;26.02;16.77;;;;;;;2.42;49.67;100935.78;5095591;28;20055;-66
2022/12/15 10:46:13;;;;;;;30.63;16.67;;;;;;;2.37;50.03;100938.94;5102616;28;20577;-66
2022/12/15 10:48:44;;;;;;;32.78;16.85;;;;;;;2.37;49.88;100940.75;5090587;28;20055;-66
2022/12/15 10:51:18;;;;;;;32.88;17.48;;;;;;;2.34;50.20;100943.75;5098311;28;20076;-66
2022/12/15 10:53:48;;;;;;;30.15;17.80;;;;;;;2.28;50.34;100943.41;5094712;28;20052;-66
2022/12/15 10:56:20;;;;;;;33.25;18.20;;;;;;;2.26;50.33;100936.63;5108914;28;20047;-66
2022/12/15 10:58:55;;;;;;;34.95;18.55;;;;;;;2.25;50.37;100941.09;5104532;28;20063;-66
2022/12/15 11:01:25;;;;;;;29.45;17.02;;;;;;;2.24;50.51;100936.78;5093006;28;20133;-66
2022/12/15 11:03:55;;;;;;;30.55;17.88;;;;;;;2.20;50.75;100939.94;5102811;28;20481;-65
2022/12/15 11:06:26;;;;;;;32.85;17.25;;;;;;;2.17;51.06;100922.53;5103287;28;20056;-65
2022/12/15 11:08:56;;;;;;;30.20;17.65;;;;;;;2.22;50.83;100935.28;5093684;28;20044;-65
2022/12/15 11:14:16;;;;;;;30.05;17.48;;;;;;;2.20;51.00;100935.47;5104651;28;20044;-65
2022/12/15 11:16:53;;;;;;;27.40;16.83;;;;;;;2.21;51.36;100931.81;5105891;28;20044;-65
2022/12/15 11:19:40;;;;;;;33.72;19.02;;;;;;;2.21;51.50;100929.16;5099129;28;20641;-66
2022/12/15 11:22:16;;;;;;;26.48;16.23;;;;;;;2.19;50.99;100925.84;5104881;28;20040;-65
2022/12/15 11:24:47;;;;;;;28.45;16.98;;;;;;;2.20;51.28;100930.16;5106401;28;20071;-65
2022/12/15 11:27:24;;;;;;;30.98;17.58;;;;;;;2.22;51.54;100927.34;5100408;28;20056;-65
2022/12/15 11:30:01;;;;;;;30.83;17.70;;;;;;;2.14;51.77;100914.09;5099593;28;20048;-64
2022/12/15 11:32:31;;;;;;;39.20;16.98;;;;;;;2.21;51.57;100923.88;5106400;28;20552;-65
2022/12/15 11:35:01;;;;;;;31.25;18.10;;;;;;;2.25;51.41;100929.66;5102417;28;20043;-66
2022/12/15 11:37:40;;;;;;;31.48;17.08;;;;;;;2.27;51.59;100930.31;5097950;28;20067;-65
2022/12/15 11:40:37;;;;;;;46.30;17.92;;;;;;;2.26;52.20;100934.81;5105611;28;20111;-66
2022/12/15 11:43:57;;;;;;;29.47;16.53;;;;;;;2.28;51.90;100916.91;5104413;28;20103;-65
2022/12/15 11:46:39;;;;;;;24.27;15.70;;;;;;;2.31;52.14;100921.03;5104989;28;20302;-65
2022/12/15 11:49:41;;;;;;;24.90;16.25;;;;;;;2.35;51.98;100918.88;5097643;28;20107;-66
2022/12/15 11:52:16;;;;;;;30.15;16.42;;;;;;;2.35;52.06;100910.94;5096010;28;20051;-65
2022/12/15 11:54:48;;;;;;;31.38;17.52;;;;;;;2.34;52.28;100915.41;5103757;28;20051;-65
2022/12/15 11:57:43;;;;;;;29.48;16.80;;;;;;;2.34;52.23;100906.63;5104902;28;20044;-65
2022/12/15 12:00:15;;;;;;;26.88;16.67;;;;;;;2.35;52.02;100911.75;5099680;28;20048;-65
2022/12/15 12:03:08;;;;;;;30.67;17.52;;;;;;;2.37;52.16;100901.00;5105846;28;20123;-65
2022/12/15 12:05:50;;;;;;;28.65;15.90;;;;;;;2.38;52.49;100900.00;5105717;28;20044;-65
2022/12/15 12:08:35;;;;;;;28.48;17.30;;;;;;;2.35;52.67;100892.38;5106097;28;20047;-67
2022/12/15 12:11:11;;;;;;;30.15;16.83;;;;;;;2.31;53.26;100901.66;5117067;28;20044;-66
2022/12/15 12:13:50;;;;;;;26.77;17.17;;;;;;;2.35;53.34;100889.72;5104058;28;20048;-66
2022/12/15 12:16:31;;;;;;;37.53;18.65;;;;;;;2.38;53.23;100890.22;5105841;28;20289;-70
2022/12/15 12:19:02;;;;;;;28.67;16.30;;;;;;;2.42;52.87;100896.84;5106800;28;20040;-67
2022/12/15 12:21:35;;;;;;;28.60;17.77;;;;;;;2.47;52.80;100891.03;5103776;28;20051;-66
2022/12/15 12:24:14;;;;;;;26.00;16.05;;;;;;;2.60;52.49;100889.50;5103557;28;20070;-67
2022/12/15 12:26:45;;;;;;;29.90;16.05;;;;;;;2.83;52.14;100892.28;5105626;28;20087;-67
2022/12/15 12:29:23;;;;;;;30.77;17.08;;;;;;;3.00;51.91;100890.41;5096542;28;20097;-65
2022/12/15 12:31:59;;;;;;;29.85;16.95;;;;;;;3.18;51.44;100887.50;5105849;28;20048;-67
2022/12/15 12:34:45;;;;;;;29.08;16.08;;;;;;;3.39;50.46;100876.28;5105225;28;20089;-67
2022/12/15 12:37:24;;;;;;;30.13;16.65;;;;;;;3.47;51.00;100884.19;5105155;28;20048;-67
2022/12/15 12:39:56;;;;;;;26.85;15.98;;;;;;;3.45;50.29;100880.91;5101360;28;20139;-67
2022/12/15 12:42:31;;;;;;;29.33;17.42;;;;;;;3.40;50.97;100878.78;5106162;28;20044;-66
2022/12/15 12:45:01;;;;;;;31.88;17.83;;;;;;;3.32;51.33;100877.97;5100411;28;20135;-67
2022/12/15 12:47:33;;;;;;;28.33;16.38;;;;;;;3.23;51.33;100878.03;5096451;28;20078;-67
2022/12/15 12:50:05;;;;;;;31.05;17.23;;;;;;;3.13;51.81;100873.94;5099066;28;20048;-67
2022/12/15 12:52:35;;;;;;;32.95;17.30;;;;;;;3.04;52.25;100862.50;5104161;28;20062;-67
2022/12/15 12:55:29;;;;;;;30.17;17.23;;;;;;;3.02;52.17;100876.97;5102110;28;20446;-67
2022/12/15 12:57:57;;;;;;;28.02;17.25;;;;;;;2.98;52.96;100865.03;5104132;28;20107;-66
2022/12/15 13:00:27;;;;;;;31.65;17.08;;;;;;;2.96;52.73;100856.41;5103736;28;20139;-67
2022/12/15 13:03:17;;;;;;;27.52;17.08;;;;;;;2.92;53.02;100864.72;5099949;28;20066;-67
2022/12/15 13:05:50;;;;;;;28.45;17.20;;;;;;;2.93;52.73;100853.09;5103976;28;20044;-67
2022/12/15 13:08:50;;;;;;;26.27;16.70;;;;;;;3.12;52.29;100861.66;5099676;28;20044;-67
2022/12/15 13:11:59;;;;;;;28.83;16.73;;;;;;;3.32;51.61;100859.38;5105307;28;20044;-68
2022/12/15 13:14:47;;;;;;;28.40;16.40;;;;;;;3.55;50.87;100846.94;5098882;28;20051;-67
2022/12/15 13:17:27;;;;;;;27.20;16.85;;;;;;;3.69;50.94;100842.69;5102442;28;20051;-68
2022/12/15 13:20:24;;;;;;;32.78;19.10;;;;;;;3.91;50.03;100839.19;4748609;28;9999980;-67
2022/12/15 13:22:53;;;;;;;30.98;17.75;;;;;;;4.00;50.53;100839.97;5095534;28;20040;-67
2022/12/15 13:25:40;;;;;;;29.75;16.88;;;;;;;3.95;50.96;100837.00;5103509;28;20591;-67
2022/12/15 13:28:19;;;;;;;28.65;17.10;;;;;;;3.88;50.99;100843.03;5096083;28;20111;-67
2022/12/15 13:31:24;;;;;;;28.10;17.02;;;;;;;3.73;51.68;100838.69;5100747;28;20162;-66
2022/12/15 13:33:58;;;;;;;28.08;17.90;;;;;;;3.59;52.07;100830.47;5087364;28;20062;-67
2022/12/15 13:36:53;;;;;;;28.17;17.67;;;;;;;3.50;52.49;100830.69;5112665;28;20056;-66
2022/12/15 13:39:57;;;;;;;28.70;17.38;;;;;;;3.43;52.58;100827.94;5104090;28;20044;-67
2022/12/15 13:42:35;;;;;;;25.58;15.95;;;;;;;3.40;52.86;100836.25;5100884;28;20051;-67
2022/12/15 13:45:47;;;;;;;27.98;16.58;;;;;;;3.31;53.09;100828.53;5091902;28;20052;-67
2022/12/15 13:48:37;;;;;;;27.25;16.65;;;;;;;3.29;52.80;100828.69;5108187;28;20056;-67
2022/12/15 13:51:21;;;;;;;27.35;16.73;;;;;;;3.26;53.35;100829.03;5100478;28;20059;-67
2022/12/15 13:53:55;;;;;;;30.85;17.42;;;;;;;3.24;53.53;100823.91;5107978;28;20295;-67
2022/12/15 13:56:41;;;;;;;29.27;17.10;;;;;;;3.22;53.27;100827.75;5106070;28;20142;-67
2022/12/15 13:59:18;;;;;;;28.80;17.45;;;;;;;3.31;53.57;100826.69;5097374;28;20054;-67
2022/12/15 14:01:50;;;;;;;27.35;16.80;;;;;;;3.48;52.67;100817.59;5111014;28;20048;-67
2022/12/15 14:04:20;;;;;;;28.83;18.48;;;;;;;3.66;52.53;100811.16;5086076;28;20087;-70
2022/12/15 14:06:52;;;;;;;30.05;18.02;;;;;;;3.82;51.90;100816.34;5091250;28;20074;-66
2022/12/15 14:09:24;;;;;;;28.05;17.15;;;;;;;3.96;51.55;100810.25;5096296;28;20574;-66
2022/12/15 14:11:52;;;;;;;28.00;17.60;;;;;;;4.11;51.48;100808.44;5100423;28;20048;-66
2022/12/15 14:14:24;;;;;;;28.60;17.70;;;;;;;4.27;51.25;100802.13;5086588;28;20048;-66